Time;durP1;ratioP1;P1;durP2;ratioP2;P2;SDS_P1;SDS_P2;PMS_P1;PMS_P2;Temp;Humidity;BMP_temperature;BMP_pressure;BME280_temperature;BME280_humidity;BME280_pressure;Samples;Min_cycle;Max_cycle;Signal;HPM_P1;HPM_P2
2022/06/19 00:01:29;;;;;;;20.70;3.13;;;;;;;23.33;75.16;96008.81;5048952;28;20052;-72
2022/06/19 00:03:55;;;;;;;22.80;4.50;;;;;;;23.32;74.98;95999.03;5049166;28;20033;-71
2022/06/19 00:06:22;;;;;;;20.77;3.50;;;;;;;23.26;75.37;95994.94;5047280;28;20403;-72
2022/06/19 00:08:49;;;;;;;25.00;4.43;;;;;;;23.15;76.96;95994.59;5046280;28;20403;-73
2022/06/19 00:11:18;;;;;;;24.70;3.63;;;;;;;23.06;78.66;95981.06;5047972;28;20037;-72
2022/06/19 00:13:44;;;;;;;19.38;3.38;;;;;;;23.05;77.19;95975.97;5046444;28;20330;-72
2022/06/19 00:16:11;;;;;;;25.08;3.30;;;;;;;23.07;76.97;95971.75;5052082;28;20108;-73
2022/06/19 00:18:38;;;;;;;22.00;4.00;;;;;;;23.11;76.72;95957.41;5051906;28;20502;-71
2022/06/19 00:21:08;;;;;;;20.67;3.60;;;;;;;23.15;76.16;95958.34;5053281;28;20048;-72
2022/06/19 00:23:34;;;;;;;20.03;3.73;;;;;;;23.16;75.91;95947.06;5053082;28;20052;-73
2022/06/19 00:26:00;;;;;;;16.27;3.65;;;;;;;23.21;75.32;95943.34;5049347;28;20051;-73
2022/06/19 00:28:27;;;;;;;21.17;3.90;;;;;;;23.33;74.37;95937.84;5049910;28;20044;-72
2022/06/19 00:30:53;;;;;;;28.38;4.20;;;;;;;23.35;75.28;95941.06;5049268;28;20067;-71
2022/06/19 00:33:19;;;;;;;18.30;3.63;;;;;;;23.34;74.36;95928.53;5065899;28;20120;-72
2022/06/19 00:35:46;;;;;;;19.23;3.15;;;;;;;23.33;73.89;95929.66;5049334;28;20032;-72
2022/06/19 00:38:12;;;;;;;20.90;3.78;;;;;;;23.30;74.25;95927.63;5050089;28;20052;-71
2022/06/19 00:40:38;;;;;;;23.35;3.90;;;;;;;23.23;75.05;95930.13;5050279;28;20530;-73
2022/06/19 00:43:03;;;;;;;28.05;4.00;;;;;;;23.19;75.07;95930.03;5063606;28;20041;-73
2022/06/19 00:45:36;;;;;;;17.17;3.53;;;;;;;23.17;74.86;95935.03;5050002;28;20264;-72
2022/06/19 00:48:09;;;;;;;20.40;3.83;;;;;;;23.21;75.81;95933.22;5050700;28;20132;-72
2022/06/19 00:50:36;;;;;;;26.40;3.70;;;;;;;23.24;74.41;95929.00;5051662;28;20047;-73
2022/06/19 00:53:05;;;;;;;18.75;4.05;;;;;;;23.22;74.80;95928.56;5050182;28;20381;-72
2022/06/19 00:55:37;;;;;;;24.10;4.38;;;;;;;23.19;75.33;95927.31;5049494;28;20036;-72
2022/06/19 00:58:12;;;;;;;18.13;3.47;;;;;;;23.16;75.50;95916.28;5051650;28;20048;-72
2022/06/19 01:00:39;;;;;;;18.73;3.63;;;;;;;23.19;74.71;95900.03;5049350;28;20183;-74
2022/06/19 01:03:17;;;;;;;25.10;3.45;;;;;;;23.26;74.68;95902.16;5062239;28;20406;-72
2022/06/19 01:05:44;;;;;;;21.83;3.50;;;;;;;23.25;75.03;95892.38;5064846;28;20035;-73
2022/06/19 01:08:11;;;;;;;18.80;3.47;;;;;;;23.23;75.77;95891.94;5048912;28;20119;-72
2022/06/19 01:10:41;;;;;;;22.88;4.00;;;;;;;23.21;75.13;95886.81;5048952;28;20052;-73
2022/06/19 01:13:08;;;;;;;20.42;3.40;;;;;;;23.23;75.52;95883.75;5052751;28;20044;-72
2022/06/19 01:15:34;;;;;;;28.08;3.92;;;;;;;23.26;74.96;95877.59;5049161;28;20143;-73
2022/06/19 01:18:04;;;;;;;18.85;3.17;;;;;;;23.22;75.68;95871.25;5050049;28;20148;-73
2022/06/19 01:20:32;;;;;;;20.95;3.38;;;;;;;23.21;76.62;95859.53;5049143;28;20778;-73
2022/06/19 01:22:57;;;;;;;21.17;3.40;;;;;;;23.18;76.54;95864.88;5051969;28;20047;-73
2022/06/19 01:25:28;;;;;;;24.50;3.63;;;;;;;23.22;75.76;95863.06;5047497;28;20048;-72
2022/06/19 01:30:45;;;;;;;17.25;3.50;;;;;;;23.06;77.19;95858.31;5046265;28;20106;-73
2022/06/19 01:33:21;;;;;;;22.08;3.72;;;;;;;23.08;76.26;95856.03;5048110;28;20044;-72
2022/06/19 01:35:48;;;;;;;25.15;3.30;;;;;;;22.99;77.52;95849.09;5049359;28;20059;-71
2022/06/19 01:38:18;;;;;;;23.52;3.60;;;;;;;22.90;79.20;95860.13;5047962;28;20510;-72
2022/06/19 01:40:47;;;;;;;19.50;3.28;;;;;;;22.79;79.85;95853.50;5047413;28;20048;-73
2022/06/19 01:43:13;;;;;;;25.30;4.40;;;;;;;22.75;79.85;95842.50;5044899;28;20041;-72
2022/06/19 01:45:45;;;;;;;21.52;3.85;;;;;;;22.66;81.80;95850.00;5048398;28;20045;-72
2022/06/19 01:48:12;;;;;;;23.00;3.60;;;;;;;22.55;81.06;95842.59;5047537;28;20048;-72
2022/06/19 01:50:38;;;;;;;24.60;3.65;;;;;;;22.44;82.03;95839.53;5047966;28;20690;-71
2022/06/19 01:53:44;;;;;;;24.85;3.95;;;;;;;22.39;83.57;95845.97;5046663;28;20037;-73
2022/06/19 01:56:12;;;;;;;19.67;3.45;;;;;;;22.42;82.29;95845.31;5038199;28;20087;-72
2022/06/19 01:58:45;;;;;;;24.45;4.13;;;;;;;22.37;82.45;95842.81;5049104;28;20524;-73
2022/06/19 02:01:11;;;;;;;22.13;3.97;;;;;;;22.35;83.72;95841.56;5045897;28;20048;-72
2022/06/19 02:03:45;;;;;;;18.52;3.70;;;;;;;22.35;82.57;95836.13;5047823;28;20577;-72
2022/06/19 02:06:14;;;;;;;20.40;3.70;;;;;;;22.33;82.22;95836.44;5048735;28;20092;-73
2022/06/19 02:08:40;;;;;;;20.63;3.17;;;;;;;22.27;83.29;95826.91;5046267;28;20087;-73
2022/06/19 02:11:08;;;;;;;29.25;3.65;;;;;;;22.26;83.09;95838.94;5045987;28;20538;-73
2022/06/19 02:13:35;;;;;;;29.90;4.80;;;;;;;22.29;83.33;95827.34;5048482;28;20037;-72
2022/06/19 02:16:05;;;;;;;22.38;3.70;;;;;;;22.28;82.90;95825.75;5062016;28;20045;-72
2022/06/19 02:18:37;;;;;;;18.73;3.17;;;;;;;22.23;83.23;95809.63;5048849;28;20421;-72
2022/06/19 02:21:05;;;;;;;12.52;3.00;;;;;;;22.24;83.10;95822.13;5048549;28;20037;-71
2022/06/19 02:23:36;;;;;;;16.30;3.35;;;;;;;22.27;82.51;95813.28;5047164;28;20101;-71
2022/06/19 02:26:05;;;;;;;18.70;3.60;;;;;;;22.32;83.12;95810.31;5047322;28;20521;-73
2022/06/19 02:28:32;;;;;;;20.00;3.53;;;;;;;22.26;83.14;95800.78;5046698;28;20139;-72
2022/06/19 02:30:58;;;;;;;23.55;3.65;;;;;;;22.30;83.25;95809.06;5046854;28;20523;-72
2022/06/19 02:33:28;;;;;;;24.90;5.07;;;;;;;22.21;84.09;95804.53;5048476;28;20558;-72
2022/06/19 02:35:53;;;;;;;24.60;3.95;;;;;;;22.16;84.37;95795.75;5065445;28;20071;-72
2022/06/19 02:38:21;;;;;;;21.23;3.58;;;;;;;22.17;84.58;95805.53;5045679;28;20036;-72
2022/06/19 02:40:58;;;;;;;21.08;3.70;;;;;;;22.11;85.03;95790.56;5047415;28;20044;-72
2022/06/19 02:43:30;;;;;;;21.60;3.83;;;;;;;22.10;85.14;95789.75;5047610;28;20475;-72
2022/06/19 02:45:56;;;;;;;21.75;3.60;;;;;;;22.06;85.50;95779.84;5046110;28;20036;-73
2022/06/19 02:48:31;;;;;;;19.48;3.72;;;;;;;22.04;85.72;95776.66;5046545;28;20119;-72
2022/06/19 02:50:58;;;;;;;17.52;3.80;;;;;;;22.03;86.07;95780.53;5046828;28;20040;-72
2022/06/19 02:53:25;;;;;;;22.58;3.28;;;;;;;22.03;85.86;95777.81;5050442;28;20036;-72
2022/06/19 02:55:51;;;;;;;20.23;4.38;;;;;;;22.00;86.63;95776.53;5046792;28;20036;-71
2022/06/19 02:58:20;;;;;;;16.85;3.70;;;;;;;21.91;86.95;95759.50;5045551;28;20467;-71
2022/06/19 03:00:51;;;;;;;21.42;3.67;;;;;;;21.89;87.50;95767.22;5064624;28;20045;-71
2022/06/19 03:03:23;;;;;;;15.13;3.10;;;;;;;21.80;88.06;95769.25;5046211;28;20039;-73
2022/06/19 03:05:49;;;;;;;17.20;2.92;;;;;;;21.77;88.23;95773.41;5031158;28;20032;-72
2022/06/19 03:08:15;;;;;;;20.50;3.20;;;;;;;21.79;88.36;95765.72;5046363;28;20724;-73
2022/06/19 03:10:40;;;;;;;19.33;3.25;;;;;;;21.74;88.65;95768.66;5047770;28;20068;-73
2022/06/19 03:13:06;;;;;;;20.30;3.90;;;;;;;21.71;88.80;95774.75;5048417;28;20047;-72
2022/06/19 03:15:31;;;;;;;31.40;4.38;;;;;;;21.70;89.31;95765.78;5046835;28;20044;-73
2022/06/19 03:17:57;;;;;;;20.77;4.18;;;;;;;21.64;89.73;95764.44;5047029;28;20036;-71
2022/06/19 03:20:24;;;;;;;23.00;3.40;;;;;;;21.59;90.26;95774.72;5047317;28;20041;-72
2022/06/19 03:22:51;;;;;;;27.05;4.10;;;;;;;21.58;90.13;95762.25;5046016;28;20122;-73
2022/06/19 03:25:17;;;;;;;28.55;4.88;;;;;;;21.52;90.77;95758.13;5044324;28;20041;-72
2022/06/19 03:27:42;;;;;;;25.60;3.53;;;;;;;21.51;90.56;95770.16;5046774;28;20391;-72
2022/06/19 03:30:08;;;;;;;16.45;3.33;;;;;;;21.52;90.66;95771.75;5044088;28;20123;-71
2022/06/19 03:32:33;;;;;;;19.48;4.07;;;;;;;21.52;90.83;95769.03;5044096;28;20044;-72
2022/06/19 03:34:59;;;;;;;19.88;3.88;;;;;;;21.48;90.67;95766.19;5046343;28;20047;-71
2022/06/19 03:37:24;;;;;;;27.23;3.60;;;;;;;21.44;91.32;95767.97;5045279;28;20927;-72
2022/06/19 03:39:50;;;;;;;24.52;4.35;;;;;;;21.40;91.99;95778.75;5045826;28;20095;-74
2022/06/19 03:42:16;;;;;;;24.85;4.03;;;;;;;21.35;91.95;95770.00;5028934;28;20029;-71
2022/06/19 03:44:42;;;;;;;20.35;3.55;;;;;;;21.29;92.79;95761.22;5045480;28;20519;-72
2022/06/19 03:47:07;;;;;;;15.35;3.78;;;;;;;21.36;91.66;95764.22;5045948;28;20052;-72
2022/06/19 03:49:33;;;;;;;20.52;3.40;;;;;;;21.45;91.41;95764.13;5044164;28;20106;-72
2022/06/19 03:51:58;;;;;;;22.58;3.95;;;;;;;21.46;91.54;95762.19;5047574;28;20646;-72
2022/06/19 03:54:24;;;;;;;18.85;4.68;;;;;;;21.42;91.24;95765.59;5044871;28;20029;-72
2022/06/19 03:56:50;;;;;;;17.15;3.55;;;;;;;21.46;91.24;95764.91;5062292;28;20041;-71
2022/06/19 03:59:16;;;;;;;21.52;3.90;;;;;;;21.49;91.62;95762.34;5045637;28;20041;-71
2022/06/19 04:01:42;;;;;;;19.02;4.53;;;;;;;21.48;91.35;95771.63;5047567;28;20112;-72
2022/06/19 04:04:09;;;;;;;23.98;4.10;;;;;;;21.48;91.84;95771.63;5045242;28;20121;-73
2022/06/19 04:06:39;;;;;;;15.30;3.80;;;;;;;21.41;92.07;95768.66;5047716;28;20072;-72
2022/06/19 04:09:06;;;;;;;22.73;4.22;;;;;;;21.44;92.08;95767.19;5045701;28;20049;-71
2022/06/19 04:11:31;;;;;;;26.17;3.50;;;;;;;21.44;92.32;95772.63;5029741;28;20496;-72
2022/06/19 04:13:57;;;;;;;25.90;4.25;;;;;;;21.47;91.67;95763.78;5047493;28;20060;-72
2022/06/19 04:16:28;;;;;;;17.50;3.97;;;;;;;21.45;92.23;95764.13;5042221;28;20707;-71
2022/06/19 04:18:56;;;;;;;17.88;4.13;;;;;;;21.48;92.42;95762.66;5044604;28;20492;-71
2022/06/19 04:21:27;;;;;;;21.60;4.07;;;;;;;21.52;91.47;95769.81;5046109;28;20033;-72
2022/06/19 04:23:56;;;;;;;20.73;4.10;;;;;;;21.55;92.15;95765.63;5047220;28;20652;-71
2022/06/19 04:26:23;;;;;;;27.88;3.90;;;;;;;21.57;92.40;95777.78;5044279;28;20041;-72
2022/06/19 04:28:48;;;;;;;23.30;4.35;;;;;;;21.56;92.48;95759.06;5034940;28;20109;-72
2022/06/19 04:31:14;;;;;;;22.92;3.95;;;;;;;21.52;93.51;95761.66;5045618;28;20487;-71
2022/06/19 04:33:40;;;;;;;24.55;4.40;;;;;;;21.61;92.70;95767.81;5047531;28;20416;-72
2022/06/19 04:36:09;;;;;;;28.70;5.38;;;;;;;21.62;93.21;95766.66;5044437;28;20086;-72
2022/06/19 04:38:40;;;;;;;20.63;3.72;;;;;;;21.63;93.52;95753.84;5046652;28;20044;-72
2022/06/19 04:41:18;;;;;;;23.90;3.83;;;;;;;21.63;94.04;95754.69;5045014;28;20329;-72
2022/06/19 04:43:44;;;;;;;28.63;4.28;;;;;;;21.67;92.94;95755.59;5046328;28;20036;-71
2022/06/19 04:46:10;;;;;;;21.23;3.85;;;;;;;21.71;93.75;95761.13;5044066;28;20028;-73
2022/06/19 04:48:37;;;;;;;23.10;4.20;;;;;;;21.72;94.06;95757.31;5044342;28;20037;-72
2022/06/19 04:51:02;;;;;;;24.88;4.10;;;;;;;21.72;94.25;95764.69;5044246;28;20037;-72
2022/06/19 04:53:28;;;;;;;21.73;4.18;;;;;;;21.75;94.76;95764.78;5037479;28;20277;-73
2022/06/19 04:55:54;;;;;;;22.98;3.95;;;;;;;21.79;94.68;95759.44;5045865;28;20037;-72
2022/06/19 04:58:23;;;;;;;25.15;3.92;;;;;;;21.84;93.81;95764.69;5044521;28;20047;-72
2022/06/19 05:00:50;;;;;;;25.90;4.40;;;;;;;21.84;94.95;95761.97;5046089;28;20049;-72
2022/06/19 05:03:17;;;;;;;23.20;4.47;;;;;;;21.92;95.13;95761.88;5050851;28;20519;-72
2022/06/19 05:05:42;;;;;;;20.90;4.32;;;;;;;21.93;94.86;95747.13;5051309;28;20041;-72
2022/06/19 05:08:07;;;;;;;15.55;3.72;;;;;;;21.99;95.27;95755.88;5049515;28;20281;-72
2022/06/19 05:10:33;;;;;;;22.38;4.47;;;;;;;22.04;94.97;95757.59;5048217;28;20529;-71
2022/06/19 05:12:58;;;;;;;30.90;4.78;;;;;;;22.09;95.14;95771.00;5049445;28;20162;-72
2022/06/19 05:15:24;;;;;;;25.63;5.25;;;;;;;22.14;95.07;95759.91;5047804;28;20424;-71
2022/06/19 05:17:50;;;;;;;27.48;4.53;;;;;;;22.20;95.21;95772.97;5048395;28;20519;-73
2022/06/19 05:20:16;;;;;;;24.23;4.65;;;;;;;22.28;94.95;95763.09;5046949;28;20036;-72
2022/06/19 05:22:42;;;;;;;21.17;4.65;;;;;;;22.32;94.68;95774.88;5038963;28;20498;-72
2022/06/19 05:25:08;;;;;;;23.55;4.38;;;;;;;22.43;95.10;95775.25;5047073;28;20102;-72
2022/06/19 05:27:36;;;;;;;24.85;4.30;;;;;;;22.49;95.00;95790.25;5066105;28;20109;-71
2022/06/19 05:30:04;;;;;;;26.50;4.47;;;;;;;22.50;97.74;95770.81;5048625;28;20060;-72
2022/06/19 05:32:29;;;;;;;25.10;4.55;;;;;;;22.57;97.51;95762.06;5046765;28;20055;-71
2022/06/19 05:34:55;;;;;;;15.93;4.72;;;;;;;22.68;96.45;95778.75;5047048;28;20519;-72
2022/06/19 05:37:20;;;;;;;21.75;4.55;;;;;;;22.67;97.05;95758.88;5048488;28;20047;-72
2022/06/19 05:39:45;;;;;;;19.98;3.95;;;;;;;22.79;94.46;95774.41;5036867;28;20568;-72
2022/06/19 05:42:11;;;;;;;18.67;4.13;;;;;;;22.89;94.44;95768.53;5046569;28;20033;-72
2022/06/19 05:44:37;;;;;;;23.38;4.45;;;;;;;22.97;92.71;95770.34;5047230;28;20226;-73
2022/06/19 05:47:02;;;;;;;29.33;4.80;;;;;;;23.05;93.97;95763.97;5047938;28;20052;-72
2022/06/19 05:49:28;;;;;;;19.13;4.63;;;;;;;23.12;92.80;95740.75;5047295;28;20067;-73
2022/06/19 05:51:54;;;;;;;23.33;4.53;;;;;;;23.22;91.96;95757.41;5023697;28;20399;-72
2022/06/19 05:54:19;;;;;;;25.08;4.22;;;;;;;23.24;92.75;95732.50;5049234;28;20337;-72
2022/06/19 05:56:45;;;;;;;24.00;4.95;;;;;;;23.32;92.20;95759.66;5046842;28;20044;-72
2022/06/19 05:59:10;;;;;;;29.25;4.75;;;;;;;23.42;92.09;95749.38;5045194;28;20462;-72
2022/06/19 06:01:36;;;;;;;30.08;4.47;;;;;;;23.48;92.09;95769.81;5048344;28;20307;-72
2022/06/19 06:04:01;;;;;;;24.33;4.32;;;;;;;23.46;92.73;95767.44;5049388;28;20561;-72
2022/06/19 06:06:29;;;;;;;32.75;5.07;;;;;;;23.47;93.55;95774.50;5047759;28;20067;-73
2022/06/19 06:08:55;;;;;;;29.42;4.53;;;;;;;23.47;92.15;95766.31;5048594;28;20044;-72
2022/06/19 06:11:21;;;;;;;30.75;4.70;;;;;;;23.53;93.10;95753.22;5050217;28;20040;-71
2022/06/19 06:13:47;;;;;;;19.67;4.20;;;;;;;23.62;93.34;95762.84;5047519;28;20029;-72
2022/06/19 06:16:16;;;;;;;17.17;4.75;;;;;;;23.68;94.12;95766.13;5048153;28;20153;-72
2022/06/19 06:18:42;;;;;;;22.27;5.47;;;;;;;23.74;92.38;95762.00;5046639;28;20047;-72
2022/06/19 06:21:14;;;;;;;26.60;4.75;;;;;;;23.81;93.28;95772.31;5048329;28;20147;-73
2022/06/19 06:23:39;;;;;;;26.42;5.63;;;;;;;23.96;94.17;95755.16;5048408;28;20552;-72
2022/06/19 06:26:11;;;;;;;21.23;5.10;;;;;;;24.03;89.09;95770.94;5049983;28;20044;-71
2022/06/19 06:28:39;;;;;;;17.26;4.54;;;;;;;24.10;90.25;95758.25;4697832;28;10000817;-73
2022/06/19 06:31:04;;;;;;;19.90;4.90;;;;;;;24.14;89.89;95759.16;4695556;28;10000573;-73
2022/06/19 06:33:31;;;;;;;24.33;5.07;;;;;;;24.16;88.17;95767.00;5029291;28;20037;-72
2022/06/19 06:35:57;;;;;;;33.13;6.15;;;;;;;24.29;88.87;95748.56;5045317;28;20349;-72
2022/06/19 06:38:24;;;;;;;21.70;4.80;;;;;;;24.35;86.89;95766.31;5048834;28;20069;-72
2022/06/19 06:40:50;;;;;;;25.17;5.30;;;;;;;24.37;88.09;95755.81;5045194;28;20617;-72
2022/06/19 06:43:17;;;;;;;22.10;5.22;;;;;;;24.45;87.32;95754.84;5046748;28;20638;-73
2022/06/19 06:45:43;;;;;;;23.83;4.90;;;;;;;24.41;89.08;95771.16;5044875;28;20541;-73
2022/06/19 06:48:09;;;;;;;20.15;5.05;;;;;;;24.58;89.33;95772.72;5043267;28;20110;-74
2022/06/19 06:50:37;;;;;;;16.52;5.05;;;;;;;24.59;86.94;95763.41;5044489;28;20037;-72
2022/06/19 06:53:03;;;;;;;24.85;5.60;;;;;;;24.60;86.11;95748.56;5046211;28;20052;-73
2022/06/19 06:55:28;;;;;;;25.20;5.25;;;;;;;24.64;86.23;95749.44;5045106;28;20086;-73
2022/06/19 06:57:54;;;;;;;24.35;5.40;;;;;;;24.63;93.02;95767.00;5043822;28;20141;-72
2022/06/19 07:00:22;;;;;;;21.38;4.57;;;;;;;24.55;92.39;95759.78;5044446;28;20032;-72
2022/06/19 07:02:49;;;;;;;22.42;5.38;;;;;;;24.54;94.02;95763.66;5044894;28;20037;-72
2022/06/19 07:05:16;;;;;;;22.73;4.90;;;;;;;24.61;94.53;95771.25;5045925;28;20344;-73
2022/06/19 07:07:41;;;;;;;19.40;4.82;;;;;;;24.62;95.14;95773.63;5043455;28;20149;-73
2022/06/19 07:10:07;;;;;;;20.25;5.55;;;;;;;24.62;95.54;95779.09;5045494;28;20436;-72
2022/06/19 07:12:33;;;;;;;21.65;5.55;;;;;;;24.69;96.75;95778.47;5045635;28;20392;-73
2022/06/19 07:14:59;;;;;;;20.50;4.97;;;;;;;24.78;95.83;95791.94;5046316;28;20040;-72
2022/06/19 07:17:24;;;;;;;18.80;5.47;;;;;;;24.84;97.13;95785.06;5047071;28;20036;-72
2022/06/19 07:19:50;;;;;;;15.60;5.22;;;;;;;24.94;96.01;95784.50;5045418;28;20060;-72
2022/06/19 07:22:17;;;;;;;25.73;5.75;;;;;;;24.96;95.37;95782.19;5044944;28;20402;-72
2022/06/19 07:24:44;;;;;;;29.15;5.68;;;;;;;25.08;95.10;95778.56;5046165;28;20090;-75
2022/06/19 07:27:09;;;;;;;21.25;5.65;;;;;;;25.11;94.20;95778.66;5029471;28;20049;-73
2022/06/19 07:29:43;;;;;;;28.77;6.18;;;;;;;25.13;87.43;95773.59;5046660;28;20058;-74
2022/06/19 07:32:09;;;;;;;20.75;5.60;;;;;;;25.18;88.32;95784.28;5044941;28;20133;-74
2022/06/19 07:34:36;;;;;;;24.48;6.07;;;;;;;25.18;87.26;95788.97;5041807;28;20171;-73
2022/06/19 07:37:01;;;;;;;20.88;5.07;;;;;;;25.23;87.81;95796.91;5046904;28;20105;-72
2022/06/19 07:39:27;;;;;;;19.30;5.70;;;;;;;25.33;87.03;95790.06;5045492;28;21080;-74
2022/06/19 07:41:52;;;;;;;20.65;5.68;;;;;;;25.40;87.76;95792.94;5046756;28;20040;-73
2022/06/19 07:44:18;;;;;;;25.63;6.43;;;;;;;25.41;88.82;95792.56;5049067;28;20067;-72
2022/06/19 07:52:12;;;;;;;18.92;6.45;;;;;;;25.23;91.45;95791.41;5043904;28;20045;-74
2022/06/19 07:54:37;;;;;;;24.10;6.35;;;;;;;25.36;90.42;95816.69;5043296;28;20040;-75
2022/06/19 07:57:03;;;;;;;24.77;6.35;;;;;;;25.38;89.44;95823.44;5046324;28;20153;-72
2022/06/19 07:59:29;;;;;;;29.02;6.68;;;;;;;25.36;90.03;95836.66;5044940;28;20213;-73
2022/06/19 08:01:54;;;;;;;19.63;6.25;;;;;;;25.42;91.34;95843.44;5046476;28;20553;-72
2022/06/19 08:04:23;;;;;;;19.00;6.10;;;;;;;25.33;91.36;95837.38;5042837;28;20487;-72
2022/06/19 08:06:49;;;;;;;20.42;6.20;;;;;;;25.53;90.43;95852.69;5046903;28;20048;-72
2022/06/19 08:09:14;;;;;;;27.70;7.20;;;;;;;25.53;100.00;95869.13;5043482;28;20565;-74
2022/06/19 08:11:40;;;;;;;16.48;7.95;;;;;;;25.28;100.00;95898.69;5045988;28;20426;-72
2022/06/19 08:14:06;;;;;;;18.50;7.40;;;;;;;24.87;100.00;95908.25;5047352;28;20059;-73
2022/06/19 08:16:31;;;;;;;20.05;7.65;;;;;;;24.54;100.00;95925.00;5042875;28;20037;-72
2022/06/19 08:18:57;;;;;;;20.80;6.85;;;;;;;24.06;100.00;95942.41;5044916;28;20077;-73
2022/06/19 08:21:22;;;;;;;17.45;7.10;;;;;;;23.88;100.00;95952.81;5061308;28;20098;-74
2022/06/19 08:23:48;;;;;;;17.13;6.35;;;;;;;23.77;100.00;95973.56;5036466;28;20044;-74
2022/06/19 08:26:13;;;;;;;17.98;5.95;;;;;;;23.56;100.00;95973.66;5047393;28;20124;-72
2022/06/19 08:31:19;;;;;;;15.10;6.57;;;;;;;24.09;100.00;95925.31;5043982;28;20049;-72
2022/06/19 08:33:44;;;;;;;15.88;6.45;;;;;;;24.25;100.00;95908.94;5011421;28;20130;-72
2022/06/19 08:36:11;;;;;;;15.82;6.32;;;;;;;24.40;100.00;95908.22;5047019;28;20127;-72
2022/06/19 08:38:44;;;;;;;18.85;6.70;;;;;;;24.55;100.00;95903.91;5051033;28;20032;-72
2022/06/19 08:41:29;;;;;;;15.65;6.25;;;;;;;24.53;100.00;95906.22;5050291;28;20048;-74
2022/06/19 08:44:07;;;;;;;13.38;5.38;;;;;;;24.30;100.00;95957.91;5051526;28;20047;-72
2022/06/19 08:47:12;;;;;;;17.95;6.15;;;;;;;23.90;100.00;95945.06;5049658;28;20044;-72
2022/06/19 08:50:24;;;;;;;19.65;6.25;;;;;;;24.07;100.00;95941.25;5035016;28;20057;-73
2022/06/19 08:53:05;;;;;;;16.75;5.82;;;;;;;23.62;100.00;95942.28;5004576;28;20511;-73
2022/06/19 08:56:07;;;;;;;16.00;5.88;;;;;;;24.15;100.00;95949.31;5049228;28;20053;-72
2022/06/19 08:58:48;;;;;;;19.13;6.53;;;;;;;24.74;100.00;95940.34;5051007;28;20045;-74
2022/06/19 09:01:55;;;;;;;18.38;7.47;;;;;;;25.03;98.87;95930.16;5051224;28;20486;-72
2022/06/19 09:07:51;;;;;;;22.77;8.80;;;;;;;25.09;96.68;95927.94;5051960;28;20041;-72
2022/06/19 09:10:23;;;;;;;15.27;7.53;;;;;;;24.76;97.36;95947.44;5048215;28;20510;-73
2022/06/19 09:13:20;;;;;;;23.00;8.07;;;;;;;24.50;99.33;95956.91;5049987;28;20044;-72
2022/06/19 09:15:59;;;;;;;19.58;6.80;;;;;;;24.66;98.38;95970.59;5016646;28;20395;-72
2022/06/19 09:18:33;;;;;;;16.08;7.30;;;;;;;25.02;97.79;95983.28;5048941;28;20269;-73
2022/06/19 09:21:28;;;;;;;16.88;7.97;;;;;;;25.25;96.29;95992.50;5048226;28;20049;-72
2022/06/19 09:24:05;;;;;;;17.58;7.50;;;;;;;25.31;95.41;95994.97;5049541;28;20479;-73
2022/06/19 09:26:42;;;;;;;18.23;7.45;;;;;;;24.95;99.25;95977.63;5048200;28;20098;-74
2022/06/19 09:29:23;;;;;;;22.08;8.02;;;;;;;25.11;97.60;95994.88;5047006;28;20053;-73
2022/06/19 09:31:58;;;;;;;23.00;7.78;;;;;;;24.92;97.71;95998.28;5049017;28;20048;-73
2022/06/19 09:34:39;;;;;;;17.98;7.78;;;;;;;24.61;98.20;95996.28;5046952;28;22248;-74
2022/06/19 09:37:15;;;;;;;18.95;7.90;;;;;;;24.50;97.86;96000.66;5047406;28;20626;-72
2022/06/19 09:39:47;;;;;;;19.85;8.07;;;;;;;24.69;96.46;95998.06;5044915;28;20044;-73
2022/06/19 09:42:27;;;;;;;23.33;8.95;;;;;;;24.75;96.42;96001.34;5046937;28;20488;-72
2022/06/19 09:44:58;;;;;;;21.23;7.57;;;;;;;25.13;94.45;96005.47;5048888;28;20180;-74
2022/06/19 09:47:29;;;;;;;21.08;8.65;;;;;;;25.39;93.60;96016.69;5048351;28;20885;-73
2022/06/19 09:50:18;;;;;;;26.42;8.77;;;;;;;25.25;91.85;96025.34;5047474;28;20062;-72
2022/06/19 09:52:54;;;;;;;21.67;8.38;;;;;;;24.86;93.70;96031.72;5049134;28;21004;-72
2022/06/19 09:55:38;;;;;;;20.17;7.45;;;;;;;25.04;92.06;96024.78;5048108;28;20415;-74
2022/06/19 09:58:16;;;;;;;20.10;7.65;;;;;;;25.26;90.78;96024.19;5049284;28;20047;-74
2022/06/19 10:00:45;;;;;;;19.50;8.23;;;;;;;25.34;90.57;96024.38;5054614;28;20077;-72
2022/06/19 10:03:19;;;;;;;18.55;7.40;;;;;;;25.79;88.83;96011.00;5049066;28;20045;-73
2022/06/19 10:05:50;;;;;;;24.35;7.13;;;;;;;25.92;87.27;96003.47;5051751;28;20082;-72
2022/06/19 10:08:25;;;;;;;20.02;7.05;;;;;;;25.69;88.20;96006.06;5066002;28;20072;-73
2022/06/19 10:11:12;;;;;;;23.52;7.50;;;;;;;25.52;88.02;96006.41;5050639;28;20045;-73
2022/06/19 10:13:51;;;;;;;21.70;8.18;;;;;;;25.47;88.94;95995.75;5052799;28;20064;-73
2022/06/19 10:16:44;;;;;;;17.58;7.32;;;;;;;26.03;88.11;95995.47;5054532;28;20048;-73
2022/06/19 10:19:31;;;;;;;21.85;8.15;;;;;;;25.96;85.72;95998.03;4350260;28;10000390;-73
2022/06/19 10:22:23;;;;;;;18.85;7.78;;;;;;;25.74;88.90;95986.59;5062082;28;20751;-72
2022/06/19 10:24:57;;;;;;;25.50;8.10;;;;;;;25.61;90.70;95985.13;5049787;28;20044;-73
2022/06/19 10:27:57;;;;;;;25.48;8.20;;;;;;;25.44;90.36;95980.78;5047342;28;20625;-72
2022/06/19 10:30:36;;;;;;;15.98;7.88;;;;;;;26.11;85.80;96014.44;5044026;28;20052;-73
2022/06/19 10:33:04;;;;;;;24.75;7.38;;;;;;;26.61;84.44;96011.94;5046466;28;20098;-72
2022/06/19 10:35:35;;;;;;;23.65;6.90;;;;;;;26.57;83.99;96024.81;5046771;28;20032;-72
2022/06/19 10:38:02;;;;;;;23.30;7.32;;;;;;;25.69;88.07;96027.97;5045478;28;20052;-72
2022/06/19 10:40:34;;;;;;;15.80;7.07;;;;;;;26.12;85.87;96026.19;5045716;28;20098;-73
2022/06/19 10:43:23;;;;;;;22.33;6.95;;;;;;;26.64;84.60;96023.00;5046013;28;20056;-73
2022/06/19 10:45:56;;;;;;;20.15;6.97;;;;;;;26.32;85.08;96016.06;5045338;28;20045;-73
2022/06/19 10:48:36;;;;;;;23.67;7.97;;;;;;;26.46;84.80;95999.09;5043659;28;20048;-72
2022/06/19 10:51:26;;;;;;;17.48;6.70;;;;;;;26.63;85.04;95987.69;5045216;28;20045;-73
2022/06/19 10:54:20;;;;;;;20.30;7.32;;;;;;;26.31;86.50;95976.06;5046576;28;20136;-73
2022/06/19 10:56:54;;;;;;;18.80;6.85;;;;;;;26.16;88.34;95964.03;5019344;28;20052;-72
2022/06/19 10:59:21;;;;;;;18.48;7.72;;;;;;;26.48;86.63;95958.41;5043170;28;20040;-73
2022/06/19 11:04:55;;;;;;;21.42;7.22;;;;;;;27.84;79.32;95926.50;5047675;28;20411;-74
2022/06/19 11:07:23;;;;;;;19.10;6.43;;;;;;;28.46;76.73;95906.84;5044968;28;20047;-73
2022/06/19 11:09:54;;;;;;;24.05;7.75;;;;;;;28.77;71.94;95903.63;5044667;28;20041;-75
2022/06/19 11:12:19;;;;;;;21.45;7.13;;;;;;;29.23;71.63;95908.75;5045696;28;20576;-75
2022/06/19 11:14:50;;;;;;;24.02;7.15;;;;;;;28.62;72.61;95901.91;5045851;28;20048;-73
2022/06/19 11:17:29;;;;;;;19.00;6.28;;;;;;;29.52;75.24;95892.44;5047007;28;20036;-75
2022/06/19 11:19:55;;;;;;;25.92;6.43;;;;;;;29.75;67.15;95873.66;5044831;28;20231;-73
2022/06/19 11:22:30;;;;;;;23.92;6.28;;;;;;;28.41;75.82;95847.47;5047138;28;20095;-74
2022/06/19 11:24:56;;;;;;;19.83;6.57;;;;;;;27.84;80.79;95835.81;5046358;28;20044;-73
2022/06/19 11:27:25;;;;;;;15.75;5.57;;;;;;;27.29;84.59;95805.25;5045886;28;20526;-73
2022/06/19 11:29:53;;;;;;;24.27;6.63;;;;;;;27.34;84.31;95810.44;5026181;28;20125;-73
2022/06/19 11:32:24;;;;;;;20.33;6.82;;;;;;;27.01;85.21;95807.59;5046939;28;20051;-74
2022/06/19 11:34:59;;;;;;;22.95;5.82;;;;;;;28.82;78.25;95801.41;5043309;28;20496;-74
2022/06/19 11:37:29;;;;;;;14.30;5.55;;;;;;;30.73;67.52;95799.84;5044009;28;20036;-74
2022/06/19 11:40:13;;;;;;;16.50;6.65;;;;;;;30.54;66.87;95819.53;5044319;28;20048;-73
2022/06/19 11:42:53;;;;;;;19.60;6.25;;;;;;;32.88;60.87;95831.03;5045578;28;20048;-75
2022/06/19 11:45:19;;;;;;;22.00;6.07;;;;;;;31.77;56.62;95828.13;5028194;28;20090;-73
2022/06/19 11:48:07;;;;;;;21.80;6.00;;;;;;;31.92;57.90;95844.66;5045505;28;20040;-74
2022/06/19 11:50:32;;;;;;;10.50;5.15;;;;;;;33.54;45.30;95841.09;5044237;28;20082;-73
2022/06/19 11:53:10;;;;;;;16.95;6.38;;;;;;;32.65;48.28;95847.41;5045798;28;20040;-74
2022/06/19 11:55:42;;;;;;;18.33;5.88;;;;;;;33.62;45.10;95839.03;5044727;28;20124;-73